createdAt,value
2019-04-23T00:01:46.124Z,13.50
2019-04-23T00:04:13.157Z,10.60
2019-04-23T00:06:57.445Z,12.50
2019-04-23T00:09:27.649Z,11.05
2019-04-23T00:11:51.634Z,11.57
2019-04-23T00:14:43.658Z,10.78
2019-04-23T00:17:15.037Z,11.10
2019-04-23T00:19:49.931Z,10.18
2019-04-23T00:22:29.090Z,12.40
2019-04-23T00:25:38.913Z,10.32
2019-04-23T00:27:47.819Z,10.85
2019-04-23T00:30:26.665Z,9.63
2019-04-23T00:35:44.007Z,12.10
2019-04-23T00:38:26.539Z,11.22
2019-04-23T00:40:59.346Z,10.72
2019-04-23T00:43:37.076Z,10.03
2019-04-23T00:46:15.558Z,9.80
2019-04-23T00:48:59.306Z,9.88
2019-04-23T00:51:36.920Z,11.03
2019-04-23T00:54:14.019Z,9.90
2019-04-23T00:56:55.261Z,12.13
2019-04-23T00:59:53.649Z,9.58
2019-04-23T01:02:23.725Z,10.32
2019-04-23T01:05:04.731Z,10.08
2019-04-23T01:07:47.572Z,10.10
2019-04-23T01:10:25.606Z,10.72
2019-04-23T01:13:03.448Z,9.15
2019-04-23T01:15:41.160Z,9.05
2019-04-23T01:18:28.345Z,9.45
2019-04-23T01:20:54.821Z,10.15
2019-04-23T01:23:05.434Z,9.73
2019-04-23T01:25:54.640Z,10.23
2019-04-23T01:28:55.822Z,9.95
2019-04-23T01:31:54.834Z,10.88
2019-04-23T01:34:31.434Z,8.83
2019-04-23T01:37:15.547Z,9.93
2019-04-23T01:42:34.043Z,8.93
2019-04-23T01:45:00.194Z,8.83
2019-04-23T01:47:39.054Z,10.15
2019-04-23T01:50:15.496Z,10.03
2019-04-23T01:52:50.388Z,9.45
2019-04-23T01:55:21.392Z,9.00
2019-04-23T02:03:15.208Z,8.83
2019-04-23T02:05:55.812Z,8.90
2019-04-23T02:08:16.562Z,9.60
2019-04-23T02:16:05.107Z,9.00
2019-04-23T02:18:44.149Z,8.95
2019-04-23T02:21:25.067Z,8.73
2019-04-23T02:23:53.695Z,7.83
2019-04-23T02:26:35.643Z,8.33
2019-04-23T02:29:26.590Z,7.40
2019-04-23T02:37:28.687Z,9.30
2019-04-23T02:40:15.515Z,8.95
2019-04-23T02:42:49.955Z,10.05
2019-04-23T02:47:54.969Z,7.72
2019-04-23T02:53:02.833Z,7.12
2019-04-23T02:55:39.462Z,8.55
2019-04-23T02:58:01.891Z,10.13
2019-04-23T03:05:46.802Z,8.50
2019-04-23T03:08:20.273Z,7.10
2019-04-23T03:13:39.263Z,9.35
2019-04-23T03:19:02.593Z,7.15
2019-04-23T03:24:36.557Z,6.83
2019-04-23T03:27:27.808Z,8.53
2019-04-23T03:29:55.300Z,8.00
2019-04-23T03:34:26.180Z,8.15
2019-04-23T03:37:49.012Z,8.60
2019-04-23T03:40:13.818Z,8.00
2019-04-23T03:43:06.760Z,7.95
2019-04-23T03:45:49.160Z,7.12
2019-04-23T03:48:14.994Z,8.03
2019-04-23T03:50:38.846Z,7.62
2019-04-23T03:53:34.628Z,7.85
2019-04-23T03:56:10.923Z,7.83
2019-04-23T04:04:14.732Z,7.10
2019-04-23T04:06:33.782Z,8.30
2019-04-23T04:09:23.347Z,8.67
2019-04-23T04:17:07.434Z,6.85
2019-04-23T04:19:47.888Z,5.90
2019-04-23T04:22:15.840Z,8.35
2019-04-23T04:24:39.840Z,7.00
2019-04-23T04:30:00.886Z,7.40
2019-04-23T04:32:33.422Z,6.97
2019-04-23T04:35:16.206Z,7.80
2019-04-23T04:43:16.157Z,7.17
2019-04-23T04:45:57.505Z,6.42
2019-04-23T04:48:23.899Z,7.35
2019-04-23T04:51:20.239Z,6.75
2019-04-23T04:56:16.695Z,6.78
2019-04-23T05:01:25.403Z,6.33
2019-04-23T05:03:58.197Z,6.92
2019-04-23T05:14:23.549Z,8.35
2019-04-23T05:16:50.725Z,5.90
2019-04-23T05:19:37.195Z,7.05
2019-04-23T05:22:08.641Z,6.45
2019-04-23T05:27:15.544Z,5.55
2019-04-23T05:29:50.700Z,6.95
2019-04-23T05:32:25.148Z,7.20
2019-04-23T05:34:55.765Z,5.67
2019-04-23T05:37:35.686Z,6.15
2019-04-23T05:40:02.559Z,7.00
2019-04-23T05:42:40.226Z,7.17
2019-04-23T05:45:21.797Z,7.67
2019-04-23T05:47:33.372Z,7.35
2019-04-23T05:55:10.887Z,6.12
2019-04-23T05:57:39.024Z,6.00
2019-04-23T06:00:17.545Z,6.78
2019-04-23T06:02:48.507Z,7.15
2019-04-23T06:05:20.144Z,8.53
2019-04-23T06:10:36.389Z,6.53
2019-04-23T06:13:04.906Z,6.08
2019-04-23T06:15:41.695Z,7.78
2019-04-23T06:18:28.557Z,10.55
2019-04-23T06:20:58.439Z,6.28
2019-04-23T06:23:33.105Z,10.32
2019-04-23T06:28:35.187Z,8.55
2019-04-23T06:31:17.815Z,7.92
2019-04-23T06:33:46.883Z,11.48
2019-04-23T06:36:25.976Z,9.10
2019-04-23T06:39:02.700Z,7.37
2019-04-23T06:41:46.551Z,9.18
2019-04-23T06:44:19.305Z,8.78
2019-04-23T06:46:50.232Z,11.12
2019-04-23T06:49:26.430Z,12.65
2019-04-23T06:52:00.692Z,12.73
2019-04-23T06:54:36.367Z,13.93
2019-04-23T06:57:10.250Z,12.33
2019-04-23T06:59:37.533Z,20.50
2019-04-23T07:04:49.854Z,13.55
2019-04-23T07:10:03.945Z,14.90
2019-04-23T07:12:38.891Z,16.75
2019-04-23T07:17:34.879Z,20.12
2019-04-23T07:20:15.275Z,20.30
2019-04-23T07:22:45.619Z,8.78
2019-04-23T07:25:14.082Z,15.45
2019-04-23T07:27:40.936Z,11.48
2019-04-23T07:32:54.897Z,8.25
2019-04-23T07:37:56.795Z,9.98
2019-04-23T07:43:15.486Z,13.20
2019-04-23T07:46:04.222Z,11.33
2019-04-23T07:48:41.938Z,12.93
2019-04-23T07:51:14.509Z,17.82
2019-04-23T07:53:31.579Z,10.43
2019-04-23T07:58:28.662Z,10.13
2019-04-23T08:03:48.381Z,10.00
2019-04-23T08:06:03.902Z,9.48
2019-04-23T08:08:39.351Z,11.85
2019-04-23T08:11:30.818Z,10.68
2019-04-23T08:13:50.671Z,11.93
2019-04-23T08:18:45.122Z,9.15
2019-04-23T08:21:15.151Z,8.23
2019-04-23T08:24:10.200Z,10.72
2019-04-23T08:26:39.194Z,13.70
2019-04-23T08:34:17.199Z,15.35
2019-04-23T08:36:43.943Z,7.75
2019-04-23T08:39:15.086Z,9.25
2019-04-23T08:44:27.390Z,9.65
2019-04-23T08:49:31.013Z,10.40
2019-04-23T08:52:10.515Z,11.75
2019-04-23T08:54:52.355Z,10.28
2019-04-23T08:59:44.045Z,10.53
2019-04-23T09:12:45.833Z,11.88
2019-04-23T09:15:23.431Z,10.98
2019-04-23T09:17:57.878Z,15.25
2019-04-23T09:23:05.798Z,15.80
2019-04-23T09:25:47.755Z,15.58
2019-04-23T09:31:09.044Z,19.12
2019-04-23T09:33:46.413Z,18.87
2019-04-23T09:36:27.637Z,13.93
2019-04-23T09:39:24.087Z,9.10
2019-04-23T09:42:22.365Z,10.38
2019-04-23T09:45:03.979Z,16.48
2019-04-23T09:50:36.577Z,19.25
2019-04-23T10:01:03.371Z,14.38
2019-04-23T10:03:21.222Z,15.28
2019-04-23T10:05:53.470Z,14.33
2019-04-23T10:08:24.220Z,12.78
2019-04-23T10:10:51.349Z,15.32
2019-04-23T10:13:26.044Z,12.03
2019-04-23T10:16:02.289Z,13.10
2019-04-23T10:18:35.173Z,16.97
2019-04-23T10:21:11.350Z,15.13
2019-04-23T10:23:49.584Z,22.42
2019-04-23T10:26:22.145Z,14.78
2019-04-23T10:28:59.969Z,16.00
2019-04-23T10:31:33.468Z,13.53
2019-04-23T10:34:18.922Z,13.53
2019-04-23T10:36:49.342Z,11.70
2019-04-23T10:39:25.419Z,19.48
2019-04-23T10:41:54.421Z,13.45
2019-04-23T10:44:25.468Z,21.60
2019-04-23T10:47:43.496Z,12.23
2019-04-23T10:50:37.500Z,13.80
2019-04-23T10:53:21.449Z,12.53
2019-04-23T11:00:53.430Z,12.23
2019-04-23T11:03:42.060Z,14.53
2019-04-23T11:06:06.944Z,13.32
2019-04-23T11:08:34.825Z,12.43
2019-04-23T11:11:24.019Z,15.10
2019-04-23T11:13:53.003Z,15.25
2019-04-23T11:19:10.792Z,13.45
2019-04-23T11:21:34.363Z,11.43
2019-04-23T11:24:26.479Z,14.93
2019-04-23T11:26:49.217Z,14.58
2019-04-23T11:29:35.728Z,14.83
2019-04-23T11:32:23.651Z,10.13
2019-04-23T11:35:03.441Z,14.10
2019-04-23T11:37:37.932Z,15.98
2019-04-23T11:40:03.699Z,13.55
2019-04-23T11:45:36.834Z,15.93
2019-04-23T11:48:26.384Z,10.82
2019-04-23T11:53:10.565Z,17.45
2019-04-23T11:55:44.803Z,12.80
2019-04-23T12:04:05.009Z,9.38
2019-04-23T12:07:04.727Z,14.10
2019-04-23T12:09:53.826Z,9.90
2019-04-23T12:12:44.684Z,10.88
2019-04-23T12:15:18.131Z,13.62
2019-04-23T12:18:05.893Z,11.40
2019-04-23T12:20:36.213Z,13.78
2019-04-23T12:23:31.664Z,12.93
2019-04-23T12:26:03.115Z,11.22
2019-04-23T12:28:38.006Z,15.35
2019-04-23T12:31:23.616Z,12.35
2019-04-23T12:36:38.031Z,12.13
2019-04-23T12:41:51.138Z,15.30
2019-04-23T12:44:30.997Z,17.23
2019-04-23T12:47:09.071Z,14.50
2019-04-23T12:52:21.313Z,13.30
2019-04-23T12:57:35.661Z,15.85
2019-04-23T13:00:19.254Z,13.28
2019-04-23T13:02:46.245Z,11.65
2019-04-23T13:05:23.173Z,15.28
2019-04-23T13:08:01.950Z,18.10
2019-04-23T13:13:17.253Z,18.60
2019-04-23T13:15:41.924Z,14.85
2019-04-23T13:18:23.618Z,15.80
2019-04-23T13:20:58.539Z,16.75
2019-04-23T13:26:21.514Z,14.93
2019-04-23T13:29:13.556Z,12.23
2019-04-23T13:31:30.163Z,16.07
2019-04-23T13:34:06.968Z,16.05
2019-04-23T13:36:46.804Z,14.10
2019-04-23T13:39:39.602Z,15.63
2019-04-23T13:42:12.025Z,21.02
2019-04-23T13:44:43.977Z,12.10
2019-04-23T13:47:21.976Z,14.38
2019-04-23T13:52:48.274Z,12.82
2019-04-23T13:55:09.090Z,21.05
2019-04-23T13:57:57.694Z,13.48
2019-04-23T14:00:22.139Z,14.60
2019-04-23T14:05:33.133Z,20.88
2019-04-23T14:08:16.324Z,12.45
2019-04-23T14:10:58.262Z,25.20
2019-04-23T14:13:46.337Z,16.27
2019-04-23T14:18:58.657Z,20.62
2019-04-23T14:24:17.715Z,21.10
2019-04-23T14:26:46.176Z,20.72
2019-04-23T14:29:41.483Z,16.95
2019-04-23T14:35:11.491Z,18.85
2019-04-23T14:37:45.782Z,18.00
2019-04-23T14:40:34.470Z,19.90
2019-04-23T14:43:11.662Z,14.18
2019-04-23T14:48:17.557Z,14.43
2019-04-23T14:50:54.572Z,14.43
2019-04-23T14:53:33.440Z,15.65
2019-04-23T14:58:42.783Z,16.23
2019-04-23T15:01:21.650Z,12.80
2019-04-23T15:06:29.865Z,22.42
2019-04-23T15:09:04.230Z,15.63
2019-04-23T15:11:48.850Z,16.05
2019-04-23T15:14:16.893Z,13.98
2019-04-23T15:16:57.087Z,13.48
2019-04-23T15:22:13.645Z,15.78
2019-04-23T15:24:52.428Z,18.67
2019-04-23T15:29:48.271Z,12.93
2019-04-23T15:32:45.300Z,14.85
2019-04-23T15:38:32.243Z,17.87
2019-04-23T15:40:36.201Z,18.02
2019-04-23T15:45:45.370Z,17.65
2019-04-23T15:48:16.572Z,19.05
2019-04-23T15:53:11.492Z,15.90
2019-04-23T15:55:50.198Z,15.20
2019-04-23T15:58:26.571Z,19.67
2019-04-23T16:03:13.587Z,13.13
2019-04-23T16:05:42.485Z,15.48
2019-04-23T16:08:56.840Z,10.53
2019-04-23T16:11:26.466Z,14.20
2019-04-23T16:14:04.799Z,13.18
2019-04-23T16:16:25.664Z,15.25
2019-04-23T16:19:05.483Z,10.25
2019-04-23T16:21:29.184Z,13.72
2019-04-23T16:23:55.397Z,12.30
2019-04-23T16:29:16.834Z,8.70
2019-04-23T16:34:05.115Z,10.70
2019-04-23T16:36:32.916Z,11.60
2019-04-23T16:41:34.907Z,9.08
2019-04-23T16:44:09.124Z,7.78
2019-04-23T16:46:33.392Z,10.93
2019-04-23T16:49:15.249Z,9.50
2019-04-23T16:51:32.565Z,14.85
2019-04-23T16:54:15.271Z,7.72
2019-04-23T16:56:55.623Z,11.05
2019-04-23T16:59:15.553Z,9.58
2019-04-23T17:01:48.027Z,8.60
2019-04-23T17:04:19.629Z,8.25
2019-04-23T17:06:46.536Z,7.62
2019-04-23T17:09:21.908Z,11.33
2019-04-23T17:11:48.392Z,7.10
2019-04-23T17:16:46.003Z,6.47
2019-04-23T17:19:24.658Z,9.20
2019-04-23T17:22:02.843Z,9.78
2019-04-23T17:24:25.807Z,9.25
2019-04-23T17:32:16.547Z,9.80
2019-04-23T17:35:04.838Z,11.48
2019-04-23T17:37:35.129Z,12.05
2019-04-23T17:40:12.378Z,11.88
2019-04-23T17:43:00.235Z,11.78
2019-04-23T17:48:05.530Z,9.95
2019-04-23T17:50:51.634Z,12.35
2019-04-23T17:53:19.938Z,8.48
2019-04-23T17:56:11.882Z,12.60
2019-04-23T17:58:35.416Z,11.77
2019-04-23T18:01:17.284Z,12.33
2019-04-23T18:03:52.060Z,9.28
2019-04-23T18:06:20.957Z,8.75
2019-04-23T18:08:49.439Z,13.20
2019-04-23T18:11:17.987Z,13.18
2019-04-23T18:13:48.423Z,9.98
2019-04-23T18:21:39.362Z,13.75
2019-04-23T18:24:16.400Z,9.28
2019-04-23T18:26:49.677Z,8.75
2019-04-23T18:29:25.503Z,9.73
2019-04-23T18:32:06.279Z,10.38
2019-04-23T18:34:56.910Z,11.05
2019-04-23T18:37:13.823Z,12.28
2019-04-23T18:39:36.986Z,7.97
2019-04-23T18:42:20.905Z,13.38
2019-04-23T18:44:43.641Z,15.15
2019-04-23T18:49:45.395Z,11.50
2019-04-23T18:52:22.276Z,10.60
2019-04-23T18:57:54.970Z,13.00
2019-04-23T19:00:24.035Z,9.60
2019-04-23T19:03:01.220Z,16.30
2019-04-23T19:05:41.582Z,12.03
2019-04-23T19:08:51.497Z,15.10
2019-04-23T19:11:11.121Z,14.40
2019-04-23T19:13:24.772Z,9.98
2019-04-23T19:15:59.805Z,11.33
2019-04-23T19:18:31.920Z,12.55
2019-04-23T19:23:32.328Z,13.78
2019-04-23T19:25:59.572Z,13.80
2019-04-23T19:28:47.440Z,13.40
2019-04-23T19:31:22.105Z,10.08
2019-04-23T19:36:13.725Z,9.53
2019-04-23T19:38:33.004Z,15.03
2019-04-23T19:43:49.167Z,13.00
2019-04-23T19:48:42.467Z,11.70
2019-04-23T19:51:07.552Z,12.82
2019-04-23T19:53:42.995Z,15.23
2019-04-23T19:58:40.865Z,12.73
2019-04-23T20:01:16.697Z,10.60
2019-04-23T20:09:09.964Z,10.43
2019-04-23T20:11:09.272Z,9.28
2019-04-23T20:16:10.975Z,11.28
2019-04-23T20:21:04.057Z,8.63
2019-04-23T20:26:17.122Z,12.37
2019-04-23T20:29:23.402Z,10.93
2019-04-23T20:33:00.610Z,11.05
2019-04-23T20:36:49.130Z,12.40
2019-04-23T20:39:21.418Z,13.25
2019-04-23T20:44:37.453Z,16.10
2019-04-23T20:47:00.532Z,8.68
2019-04-23T20:49:41.981Z,13.68
2019-04-23T20:57:24.583Z,13.08
2019-04-23T20:59:51.612Z,10.35
2019-04-23T21:02:42.089Z,12.33
2019-04-23T21:05:05.613Z,13.98
2019-04-23T21:07:40.666Z,12.93
2019-04-23T21:12:50.059Z,13.60
2019-04-23T21:15:10.478Z,9.95
2019-04-23T21:17:54.556Z,11.88
2019-04-23T21:23:04.676Z,10.90
2019-04-23T21:25:35.038Z,8.68
2019-04-23T21:30:58.928Z,12.03
2019-04-23T21:33:11.920Z,10.55
2019-04-23T21:39:18.360Z,10.25
2019-04-23T21:46:55.425Z,11.40
2019-04-23T21:51:57.682Z,9.65
2019-04-23T21:54:30.125Z,9.33
2019-04-23T21:56:53.947Z,9.60
2019-04-23T21:59:27.457Z,10.53
2019-04-23T22:02:01.868Z,9.65
2019-04-23T22:06:59.077Z,11.80
2019-04-23T22:14:39.973Z,9.75
2019-04-23T22:19:38.212Z,10.53
2019-04-23T22:22:05.865Z,10.30
2019-04-23T22:24:51.494Z,11.12
2019-04-23T22:27:13.299Z,10.82
2019-04-23T22:29:43.571Z,11.00
2019-04-23T22:32:21.592Z,10.23
2019-04-23T22:34:55.997Z,11.50
2019-04-23T22:37:23.800Z,9.33
2019-04-23T22:39:59.034Z,10.85
2019-04-23T22:42:57.203Z,8.58
2019-04-23T22:45:10.579Z,9.83
2019-04-23T22:47:33.641Z,8.45
2019-04-23T22:50:05.884Z,10.05
2019-04-23T22:52:42.164Z,9.43
2019-04-23T22:55:07.934Z,8.53
2019-04-23T22:57:56.681Z,7.60
2019-04-23T23:02:54.650Z,9.90
2019-04-23T23:05:29.058Z,9.30
2019-04-23T23:10:24.550Z,9.78
2019-04-23T23:13:01.889Z,7.83
2019-04-23T23:15:24.863Z,8.50
2019-04-23T23:18:02.422Z,9.18
2019-04-23T23:20:20.585Z,8.18
2019-04-23T23:23:06.140Z,8.10
2019-04-23T23:28:02.247Z,9.33
2019-04-23T23:30:33.742Z,8.63
2019-04-23T23:35:31.232Z,9.03
2019-04-23T23:40:25.765Z,8.70
2019-04-23T23:43:10.077Z,8.00
2019-04-23T23:45:35.073Z,9.50
2019-04-23T23:50:46.034Z,9.03
2019-04-23T23:53:23.573Z,9.18
2019-04-23T23:55:46.856Z,7.90
2019-04-23T23:58:14.941Z,8.68
